createdAt,value
2014-08-07T00:00:17.550Z,101085
2014-08-07T00:00:35.834Z,101077
2014-08-07T00:00:54.115Z,101085
2014-08-07T00:01:12.412Z,101085
2014-08-07T00:01:30.693Z,101082
2014-08-07T00:01:48.977Z,101080
2014-08-07T00:02:07.258Z,101088
2014-08-07T00:02:25.742Z,101080
2014-08-07T00:02:43.838Z,101074
2014-08-07T00:03:02.119Z,101091
2014-08-07T00:03:20.401Z,101083
2014-08-07T00:03:38.697Z,101085
2014-08-07T00:03:56.965Z,101083
2014-08-07T00:04:15.262Z,101080
2014-08-07T00:04:33.559Z,101080
2014-08-07T00:04:51.842Z,101083
2014-08-07T00:05:10.123Z,101083
2014-08-07T00:05:28.420Z,101085
2014-08-07T00:05:46.701Z,101083
2014-08-07T00:06:04.985Z,101071
2014-08-07T00:06:23.266Z,101085
2014-08-07T00:06:41.563Z,101071
2014-08-07T00:06:59.846Z,101077
2014-08-07T00:07:18.127Z,101065
2014-08-07T00:07:36.424Z,101083
2014-08-07T00:07:54.705Z,101083
2014-08-07T00:08:12.989Z,101077
2014-08-07T00:08:31.270Z,101080
2014-08-07T00:08:49.567Z,101091
2014-08-07T00:09:07.850Z,101091
2014-08-07T00:09:26.131Z,101077
2014-08-07T00:09:44.413Z,101082
2014-08-07T00:10:02.694Z,101082
2014-08-07T00:10:20.977Z,101085
2014-08-07T00:10:39.258Z,101082
2014-08-07T00:10:57.555Z,101088
2014-08-07T00:11:15.838Z,101074
2014-08-07T00:11:34.120Z,101082
2014-08-07T00:11:52.401Z,101079
2014-08-07T00:12:10.682Z,101085
2014-08-07T00:12:28.965Z,101085
2014-08-07T00:12:47.247Z,101079
2014-08-07T00:13:05.528Z,101082
2014-08-07T00:13:23.811Z,101082
2014-08-07T00:13:42.092Z,101077
2014-08-07T00:14:00.374Z,101085
2014-08-07T00:14:18.671Z,101074
2014-08-07T00:14:36.954Z,101074
2014-08-07T00:14:55.235Z,101077
2014-08-07T00:15:13.532Z,101071
2014-08-07T00:15:31.815Z,101083
2014-08-07T00:15:50.112Z,101074
2014-08-07T00:16:08.393Z,101077
2014-08-07T00:16:26.675Z,101071
2014-08-07T00:16:44.958Z,101080
2014-08-07T00:17:03.255Z,101077
2014-08-07T00:17:21.536Z,101077
2014-08-07T00:17:39.819Z,101074
2014-08-07T00:17:58.100Z,101071
2014-08-07T00:18:16.382Z,101080
2014-08-07T00:18:34.679Z,101077
2014-08-07T00:18:52.962Z,101074
2014-08-07T00:19:11.243Z,101080
2014-08-07T00:19:29.524Z,101074
2014-08-07T00:19:47.808Z,101068
2014-08-07T00:20:06.104Z,101077
2014-08-07T00:20:24.386Z,101074
2014-08-07T00:20:42.667Z,101079
2014-08-07T00:21:00.950Z,101076
2014-08-07T00:21:19.247Z,101076
2014-08-07T00:21:37.528Z,101074
2014-08-07T00:21:55.812Z,101074
2014-08-07T00:22:14.093Z,101071
2014-08-07T00:22:32.374Z,101079
2014-08-07T00:22:50.671Z,101077
2014-08-07T00:23:08.954Z,101079
2014-08-07T00:23:27.235Z,101079
2014-08-07T00:23:45.517Z,101077
2014-08-07T00:24:03.801Z,101074
2014-08-07T00:24:22.082Z,101077
2014-08-07T00:24:40.363Z,101071
2014-08-07T00:24:58.660Z,101074
2014-08-07T00:25:16.943Z,101065
2014-08-07T00:25:35.224Z,101065
2014-08-07T00:25:53.505Z,101065
2014-08-07T00:26:11.788Z,101074
2014-08-07T00:26:30.085Z,101071
2014-08-07T00:26:48.366Z,101071
2014-08-07T00:27:06.648Z,101071
2014-08-07T00:27:24.932Z,101068
2014-08-07T00:27:43.213Z,101074
2014-08-07T00:28:01.510Z,101077
2014-08-07T00:28:19.792Z,101074
2014-08-07T00:28:38.074Z,101074
2014-08-07T00:28:56.370Z,101071
2014-08-07T00:29:14.652Z,101071
2014-08-07T00:29:32.936Z,101068
2014-08-07T00:29:51.217Z,101074
2014-08-07T00:30:09.498Z,101068
2014-08-07T00:30:27.797Z,101065
2014-08-07T00:30:46.079Z,101059
2014-08-07T00:31:04.360Z,101068
2014-08-07T00:31:22.641Z,101062
2014-08-07T00:31:40.940Z,101059
2014-08-07T00:31:59.221Z,101065
2014-08-07T00:32:17.502Z,101071
2014-08-07T00:32:35.801Z,101068
2014-08-07T00:32:54.083Z,101070
2014-08-07T00:33:12.364Z,101065
2014-08-07T00:33:30.647Z,101073
2014-08-07T00:33:48.944Z,101065
2014-08-07T00:34:07.225Z,101062
2014-08-07T00:34:25.506Z,101062
2014-08-07T00:34:43.790Z,101065
2014-08-07T00:35:02.087Z,101065
2014-08-07T00:35:20.368Z,101056
2014-08-07T00:35:38.651Z,101068
2014-08-07T00:35:56.932Z,101065
2014-08-07T00:36:15.214Z,101062
2014-08-07T00:36:33.510Z,101068
2014-08-07T00:36:51.809Z,101065
2014-08-07T00:37:10.091Z,101062
2014-08-07T00:37:28.372Z,101065
2014-08-07T00:37:46.671Z,101070
2014-08-07T00:38:04.952Z,101062
2014-08-07T00:38:23.233Z,101070
2014-08-07T00:38:41.514Z,101065
2014-08-07T00:38:59.813Z,101062
2014-08-07T00:39:18.095Z,101073
2014-08-07T00:39:36.376Z,101062
2014-08-07T00:39:54.675Z,101062
2014-08-07T00:40:12.956Z,101056
2014-08-07T00:40:31.237Z,101062
2014-08-07T00:40:49.534Z,101065
2014-08-07T00:41:07.817Z,101065
2014-08-07T00:41:26.099Z,101059
2014-08-07T00:41:44.380Z,101056
2014-08-07T00:42:02.663Z,101062
2014-08-07T00:42:20.960Z,101062
2014-08-07T00:42:39.241Z,101065
2014-08-07T00:42:57.538Z,101059
2014-08-07T00:43:15.821Z,101065
2014-08-07T00:43:34.103Z,101062
2014-08-07T00:43:52.384Z,101065
2014-08-07T00:44:10.683Z,101065
2014-08-07T00:44:28.964Z,101062
2014-08-07T00:44:47.245Z,101065
2014-08-07T00:45:05.542Z,101065
2014-08-07T00:45:23.825Z,101065
2014-08-07T00:45:42.107Z,101062
2014-08-07T00:46:00.388Z,101062
2014-08-07T00:46:18.687Z,101062
2014-08-07T00:46:36.968Z,101068
2014-08-07T00:46:55.249Z,101065
2014-08-07T00:47:13.546Z,101062
2014-08-07T00:47:31.829Z,101073
2014-08-07T00:47:50.111Z,101062
2014-08-07T00:48:08.407Z,101053
2014-08-07T00:48:26.691Z,101062
2014-08-07T00:48:44.972Z,101067
2014-08-07T00:49:03.253Z,101059
2014-08-07T00:49:21.534Z,101059
2014-08-07T00:49:39.833Z,101059
2014-08-07T00:49:58.115Z,101067
2014-08-07T00:50:16.396Z,101062
2014-08-07T00:50:34.680Z,101059
2014-08-07T00:50:52.977Z,101065
2014-08-07T00:51:11.258Z,101062
2014-08-07T00:51:29.539Z,101059
2014-08-07T00:51:47.837Z,101059
2014-08-07T00:52:06.119Z,101065
2014-08-07T00:52:24.400Z,101059
2014-08-07T00:52:42.684Z,101062
2014-08-07T00:53:00.981Z,101050
2014-08-07T00:53:19.262Z,101065
2014-08-07T00:53:37.543Z,101053
2014-08-07T00:53:55.827Z,101056
2014-08-07T00:54:14.124Z,101053
2014-08-07T00:54:32.420Z,101047
2014-08-07T00:54:50.688Z,101053
2014-08-07T00:55:08.985Z,101056
2014-08-07T00:55:27.266Z,101053
2014-08-07T00:55:45.547Z,101053
2014-08-07T00:56:03.831Z,101050
2014-08-07T00:56:22.128Z,101047
2014-08-07T00:56:40.409Z,101062
2014-08-07T00:56:58.692Z,101053
2014-08-07T00:57:16.989Z,101056
2014-08-07T00:57:35.270Z,101045
2014-08-07T00:57:53.551Z,101047
2014-08-07T00:58:11.835Z,101053
2014-08-07T00:58:30.132Z,101039
2014-08-07T00:58:48.413Z,101056
2014-08-07T00:59:06.696Z,101050
2014-08-07T00:59:24.993Z,101042
2014-08-07T00:59:43.274Z,101053
2014-08-07T01:00:01.555Z,101050
2014-08-07T01:00:19.839Z,101045
2014-08-07T01:00:38.136Z,101050
2014-08-07T01:00:56.417Z,101050
2014-08-07T01:01:14.700Z,101062
2014-08-07T01:01:32.997Z,101039
2014-08-07T01:01:51.278Z,101039
2014-08-07T01:02:09.559Z,101045
2014-08-07T01:02:27.843Z,101050
2014-08-07T01:02:46.140Z,101050
2014-08-07T01:03:04.421Z,101045
2014-08-07T01:03:22.704Z,101047
2014-08-07T01:03:41.001Z,101056
2014-08-07T01:03:59.282Z,101056
2014-08-07T01:04:17.563Z,101042
2014-08-07T01:04:35.847Z,101047
2014-08-07T01:04:54.144Z,101042
2014-08-07T01:05:12.425Z,101047
2014-08-07T01:05:30.709Z,101047
2014-08-07T01:05:48.990Z,101042
2014-08-07T01:06:07.272Z,101047
2014-08-07T01:06:25.568Z,101044
2014-08-07T01:06:43.851Z,101047
2014-08-07T01:07:02.132Z,101050
2014-08-07T01:07:20.413Z,101044
2014-08-07T01:07:38.697Z,101042
2014-08-07T01:07:56.994Z,101044
2014-08-07T01:08:15.276Z,101050
2014-08-07T01:08:33.557Z,101044
2014-08-07T01:08:51.856Z,101044
2014-08-07T01:09:10.137Z,101042
2014-08-07T01:09:28.418Z,101044
2014-08-07T01:09:46.700Z,101047
2014-08-07T01:10:04.997Z,101050
2014-08-07T01:10:23.279Z,101042
2014-08-07T01:10:41.560Z,101050
2014-08-07T01:10:59.844Z,101047
2014-08-07T01:11:18.125Z,101050
2014-08-07T01:11:36.422Z,101044
2014-08-07T01:11:54.704Z,101044
2014-08-07T01:12:12.986Z,101042
2014-08-07T01:12:31.267Z,101042
2014-08-07T01:12:49.548Z,101033
2014-08-07T01:13:07.848Z,101042
2014-08-07T01:13:26.129Z,101042
2014-08-07T01:13:44.411Z,101036
2014-08-07T01:14:02.708Z,101042
2014-08-07T01:14:20.990Z,101036
2014-08-07T01:14:39.271Z,101044
2014-08-07T01:14:57.552Z,101024
2014-08-07T01:15:15.851Z,101042
2014-08-07T01:15:34.132Z,101044
2014-08-07T01:15:52.414Z,101044
2014-08-07T01:16:10.698Z,101039
2014-08-07T01:16:28.995Z,101039
2014-08-07T01:16:47.276Z,101036
2014-08-07T01:17:05.573Z,101042
2014-08-07T01:17:23.856Z,101036
2014-08-07T01:17:42.137Z,101039
2014-08-07T01:18:00.419Z,101036
2014-08-07T01:18:18.702Z,101033
2014-08-07T01:18:36.999Z,101036
2014-08-07T01:18:55.280Z,101036
2014-08-07T01:19:13.561Z,101036
2014-08-07T01:19:31.860Z,101036
2014-08-07T01:19:50.141Z,101030
2014-08-07T01:20:08.423Z,101027
2014-08-07T01:20:26.706Z,101036
2014-08-07T01:20:45.003Z,101036
2014-08-07T01:21:03.284Z,101036
2014-08-07T01:21:21.565Z,101033
2014-08-07T01:21:39.848Z,101039
2014-08-07T01:21:58.145Z,101024
2014-08-07T01:22:16.427Z,101030
2014-08-07T01:22:34.710Z,101033
2014-08-07T01:22:53.007Z,101039
2014-08-07T01:23:11.288Z,101030
2014-08-07T01:23:29.569Z,101036
2014-08-07T01:23:48.056Z,101041
2014-08-07T01:24:06.149Z,101033
2014-08-07T01:24:24.431Z,101033
2014-08-07T01:24:42.714Z,101030
2014-08-07T01:25:00.995Z,101036
2014-08-07T01:25:19.292Z,101030
2014-08-07T01:25:37.573Z,101036
2014-08-07T01:25:55.856Z,101033
2014-08-07T01:26:14.138Z,101033
2014-08-07T01:26:32.419Z,101033
2014-08-07T01:26:50.702Z,101030
2014-08-07T01:27:08.999Z,101033
2014-08-07T01:27:27.280Z,101036
2014-08-07T01:27:45.562Z,101039
2014-08-07T01:28:03.845Z,101033
2014-08-07T01:28:22.142Z,101036
2014-08-07T01:28:40.423Z,101033
2014-08-07T01:28:58.722Z,101030
2014-08-07T01:29:17.003Z,101033
2014-08-07T01:29:35.284Z,101039
2014-08-07T01:29:53.566Z,101033
2014-08-07T01:30:11.849Z,101036
2014-08-07T01:30:30.146Z,101036
2014-08-07T01:30:48.427Z,101030
2014-08-07T01:31:06.710Z,101030
2014-08-07T01:31:25.007Z,101030
2014-08-07T01:31:43.288Z,101030
2014-08-07T01:32:01.570Z,101019
2014-08-07T01:32:19.853Z,101030
2014-08-07T01:32:38.150Z,101027
2014-08-07T01:32:56.431Z,101024
2014-08-07T01:33:14.714Z,101024
2014-08-07T01:33:33.011Z,101027
2014-08-07T01:33:51.292Z,101021
2014-08-07T01:34:09.574Z,101024
2014-08-07T01:34:27.858Z,101024
2014-08-07T01:34:46.155Z,101027
2014-08-07T01:35:04.436Z,101030
2014-08-07T01:35:22.735Z,101021
2014-08-07T01:35:41.032Z,101024
2014-08-07T01:35:59.313Z,101030
2014-08-07T01:36:17.594Z,101021
2014-08-07T01:36:35.893Z,101021
2014-08-07T01:36:54.174Z,101024
2014-08-07T01:37:12.471Z,101036
2014-08-07T01:37:30.753Z,101033
2014-08-07T01:37:49.035Z,101024
2014-08-07T01:38:07.316Z,101021
2014-08-07T01:38:25.613Z,101027
2014-08-07T01:38:43.897Z,101024
2014-08-07T01:39:02.178Z,101030
2014-08-07T01:39:20.460Z,101027
2014-08-07T01:39:38.757Z,101030
2014-08-07T01:39:57.039Z,101024
2014-08-07T01:40:15.320Z,101024
2014-08-07T01:40:33.617Z,101024
2014-08-07T01:40:51.901Z,101027
2014-08-07T01:41:10.182Z,101019
2014-08-07T01:41:28.479Z,101036
2014-08-07T01:41:46.762Z,101024
2014-08-07T01:42:05.044Z,101021
2014-08-07T01:42:23.341Z,101021
2014-08-07T01:42:41.622Z,101027
2014-08-07T01:42:59.905Z,101021
2014-08-07T01:43:18.186Z,101018
2014-08-07T01:43:36.468Z,101024
2014-08-07T01:43:54.766Z,101027
2014-08-07T01:44:13.048Z,101033
2014-08-07T01:44:31.329Z,101027
2014-08-07T01:44:49.626Z,101024
2014-08-07T01:45:07.909Z,101018
2014-08-07T01:45:26.190Z,101024
2014-08-07T01:45:44.472Z,101024
2014-08-07T01:46:02.770Z,101024
2014-08-07T01:46:21.052Z,101016
2014-08-07T01:46:39.333Z,101024
2014-08-07T01:46:57.630Z,101016
2014-08-07T01:47:15.913Z,101021
2014-08-07T01:47:34.194Z,101021
2014-08-07T01:47:52.476Z,101021
2014-08-07T01:48:10.774Z,101027
2014-08-07T01:48:29.056Z,101018
2014-08-07T01:48:47.337Z,101019
2014-08-07T01:49:05.634Z,101021
2014-08-07T01:49:23.917Z,101024
2014-08-07T01:49:42.214Z,101019
2014-08-07T01:50:00.495Z,101016
2014-08-07T01:50:18.778Z,101021
2014-08-07T01:50:37.060Z,101024
2014-08-07T01:50:55.357Z,101016
2014-08-07T01:51:13.638Z,101018
2014-08-07T01:51:31.922Z,101016
2014-08-07T01:51:50.219Z,101021
2014-08-07T01:52:08.500Z,101021
2014-08-07T01:52:26.782Z,101016
2014-08-07T01:52:45.079Z,101016
2014-08-07T01:53:03.361Z,101010
2014-08-07T01:53:21.644Z,101016
2014-08-07T01:53:39.941Z,101013
2014-08-07T01:53:58.222Z,101010
2014-08-07T01:54:16.503Z,101013
2014-08-07T01:54:34.786Z,101019
2014-08-07T01:54:53.083Z,101021
2014-08-07T01:55:11.365Z,101004
2014-08-07T01:55:29.648Z,101016
2014-08-07T01:55:47.929Z,101013
2014-08-07T01:56:06.226Z,101018
2014-08-07T01:56:24.507Z,101007
2014-08-07T01:56:42.790Z,101018
2014-08-07T01:57:01.087Z,101010
2014-08-07T01:57:19.369Z,101013
2014-08-07T01:57:37.652Z,101016
2014-08-07T01:57:55.949Z,101016
2014-08-07T01:58:14.230Z,101013
2014-08-07T01:58:32.511Z,101010
2014-08-07T01:58:50.810Z,101016
2014-08-07T01:59:09.091Z,101010
2014-08-07T01:59:27.373Z,101013
2014-08-07T01:59:45.656Z,101004
2014-08-07T02:00:03.953Z,101016
2014-08-07T02:00:22.234Z,101007
2014-08-07T02:00:40.515Z,101016
2014-08-07T02:00:58.814Z,101013
2014-08-07T02:01:17.095Z,101010
2014-08-07T02:01:35.377Z,101004
2014-08-07T02:01:53.661Z,101010
2014-08-07T02:02:11.958Z,101004
2014-08-07T02:02:30.239Z,101004
2014-08-07T02:02:48.536Z,101010
2014-08-07T02:03:06.819Z,101010
2014-08-07T02:03:25.100Z,101016
2014-08-07T02:03:43.397Z,101001
2014-08-07T02:04:01.679Z,101004
2014-08-07T02:04:19.961Z,101007
2014-08-07T02:04:38.242Z,101007
2014-08-07T02:04:56.539Z,101001
2014-08-07T02:05:14.823Z,101013
2014-08-07T02:05:33.104Z,101007
2014-08-07T02:05:51.386Z,101004
2014-08-07T02:06:09.669Z,101001
2014-08-07T02:06:27.966Z,101007
2014-08-07T02:06:46.247Z,101007
2014-08-07T02:07:04.544Z,101010
2014-08-07T02:07:22.827Z,101004
2014-08-07T02:07:41.108Z,101001
2014-08-07T02:07:59.405Z,100998
2014-08-07T02:08:17.687Z,100996
2014-08-07T02:08:35.984Z,101001
2014-08-07T02:08:54.266Z,101004
2014-08-07T02:09:12.547Z,101004
2014-08-07T02:09:30.831Z,101001
2014-08-07T02:09:49.128Z,101004
2014-08-07T02:10:07.409Z,101001
2014-08-07T02:10:25.692Z,101001
2014-08-07T02:10:43.974Z,100998
2014-08-07T02:11:02.271Z,100998
2014-08-07T02:11:20.552Z,100996
2014-08-07T02:11:38.835Z,101007
2014-08-07T02:11:57.132Z,101004
2014-08-07T02:12:15.413Z,100998
2014-08-07T02:12:33.712Z,100996
2014-08-07T02:12:51.993Z,100993
2014-08-07T02:13:10.275Z,100996
2014-08-07T02:13:28.556Z,100996
2014-08-07T02:13:46.855Z,100996
2014-08-07T02:14:05.136Z,101001
2014-08-07T02:14:23.433Z,101001
2014-08-07T02:14:41.716Z,100996
2014-08-07T02:15:00.029Z,100996
2014-08-07T02:15:18.310Z,100998
2014-08-07T02:15:36.591Z,100998
2014-08-07T02:15:54.890Z,101001
2014-08-07T02:16:13.171Z,101001
2014-08-07T02:16:31.468Z,100993
2014-08-07T02:16:49.751Z,100996
2014-08-07T02:17:08.033Z,101004
2014-08-07T02:17:26.314Z,101004
2014-08-07T02:17:44.611Z,100996
2014-08-07T02:18:02.894Z,100996
2014-08-07T02:18:21.175Z,101001
2014-08-07T02:18:39.472Z,100998
2014-08-07T02:18:57.755Z,100996
2014-08-07T02:19:16.037Z,101010
2014-08-07T02:19:34.333Z,101001
2014-08-07T02:19:52.615Z,101007
2014-08-07T02:20:10.898Z,101001
2014-08-07T02:20:29.210Z,101007
2014-08-07T02:20:47.507Z,101007
2014-08-07T02:21:05.775Z,100996
2014-08-07T02:21:24.072Z,101001
2014-08-07T02:21:42.353Z,101004
2014-08-07T02:22:00.634Z,101010
2014-08-07T02:22:18.933Z,101010
2014-08-07T02:22:37.214Z,101010
2014-08-07T02:22:55.511Z,101004
2014-08-07T02:23:13.795Z,101007
2014-08-07T02:23:32.076Z,101007
2014-08-07T02:23:50.373Z,101007
2014-08-07T02:24:08.654Z,100998
2014-08-07T02:24:26.937Z,101007
2014-08-07T02:24:45.218Z,101004
2014-08-07T02:25:03.500Z,101010
2014-08-07T02:25:21.799Z,101004
2014-08-07T02:25:40.080Z,101001
2014-08-07T02:25:58.361Z,101016
2014-08-07T02:26:16.658Z,101007
2014-08-07T02:26:34.941Z,101004
2014-08-07T02:26:53.238Z,101013
2014-08-07T02:27:11.519Z,101016
2014-08-07T02:27:29.803Z,101001
2014-08-07T02:27:48.099Z,101010
2014-08-07T02:28:06.365Z,101004
2014-08-07T02:28:24.662Z,101001
2014-08-07T02:28:42.945Z,101010
2014-08-07T02:29:01.242Z,101001
2014-08-07T02:29:19.523Z,101001
2014-08-07T02:29:37.808Z,101001
2014-08-07T02:29:56.104Z,101001
2014-08-07T02:30:14.386Z,100993
2014-08-07T02:30:32.667Z,100995
2014-08-07T02:30:50.949Z,100987
2014-08-07T02:31:09.246Z,100995
2014-08-07T02:31:27.527Z,100993
2014-08-07T02:31:45.812Z,100995
2014-08-07T02:32:04.108Z,100995
2014-08-07T02:32:22.390Z,101004
2014-08-07T02:32:40.671Z,100995
2014-08-07T02:32:58.953Z,100995
2014-08-07T02:33:17.250Z,100993
2014-08-07T02:33:35.531Z,100998
2014-08-07T02:33:53.816Z,100998
2014-08-07T02:34:12.097Z,100993
2014-08-07T02:34:30.394Z,100995
2014-08-07T02:34:48.691Z,100995
2014-08-07T02:35:06.974Z,100993
2014-08-07T02:35:25.255Z,100995
2014-08-07T02:35:43.552Z,100998
2014-08-07T02:36:01.834Z,100996
2014-08-07T02:36:20.115Z,100982
2014-08-07T02:36:38.397Z,100996
2014-08-07T02:36:56.694Z,100996
2014-08-07T02:37:14.993Z,100996
2014-08-07T02:37:33.275Z,101001
2014-08-07T02:37:51.556Z,101001
2014-08-07T02:38:09.839Z,100993
2014-08-07T02:38:28.136Z,100985
2014-08-07T02:38:46.417Z,101001
2014-08-07T02:39:04.699Z,100996
2014-08-07T02:39:22.997Z,101001
2014-08-07T02:39:41.279Z,100982
2014-08-07T02:39:59.560Z,100996
2014-08-07T02:40:17.843Z,100987
2014-08-07T02:40:36.140Z,100990
2014-08-07T02:40:54.421Z,100990
2014-08-07T02:41:12.703Z,100999
2014-08-07T02:41:31.001Z,100990
2014-08-07T02:41:49.283Z,100990
2014-08-07T02:42:07.564Z,100993
2014-08-07T02:42:25.863Z,100998
2014-08-07T02:42:44.144Z,100996
2014-08-07T02:43:02.425Z,101001
2014-08-07T02:43:20.707Z,100993
2014-08-07T02:43:39.005Z,100996
2014-08-07T02:43:57.287Z,100993
2014-08-07T02:44:15.568Z,100993
2014-08-07T02:44:33.851Z,100996
2014-08-07T02:44:52.132Z,100974
2014-08-07T02:45:10.429Z,100987
2014-08-07T02:45:28.711Z,100990
2014-08-07T02:45:46.994Z,100985
2014-08-07T02:46:05.291Z,100990
2014-08-07T02:46:23.572Z,100982
2014-08-07T02:46:41.855Z,100987
2014-08-07T02:47:00.136Z,100998
2014-08-07T02:47:18.433Z,100990
2014-08-07T02:47:36.715Z,100985
2014-08-07T02:47:55.013Z,100987
2014-08-07T02:48:13.295Z,100990
2014-08-07T02:48:31.576Z,100998
2014-08-07T02:48:49.876Z,100990
2014-08-07T02:49:08.157Z,100985
2014-08-07T02:49:26.454Z,100993
2014-08-07T02:49:44.735Z,100993
2014-08-07T02:50:03.017Z,100998
2014-08-07T02:50:21.314Z,100987
2014-08-07T02:50:39.596Z,100990
2014-08-07T02:50:57.880Z,100993
2014-08-07T02:51:16.177Z,100987
2014-08-07T02:51:34.458Z,100987
2014-08-07T02:51:52.724Z,101001
2014-08-07T02:52:11.038Z,100993
2014-08-07T02:52:29.319Z,100998
2014-08-07T02:52:47.601Z,100993
2014-08-07T02:53:05.899Z,100993
2014-08-07T02:53:24.181Z,100995
2014-08-07T02:53:42.462Z,100995
2014-08-07T02:54:00.759Z,100993
2014-08-07T02:54:19.042Z,100987
2014-08-07T02:54:37.323Z,100998
2014-08-07T02:54:55.605Z,100985
2014-08-07T02:55:13.903Z,100998
2014-08-07T02:55:32.185Z,100987
2014-08-07T02:55:50.466Z,100993
2014-08-07T02:56:08.747Z,100996
2014-08-07T02:56:27.046Z,100996
2014-08-07T02:56:45.327Z,100993
2014-08-07T02:57:03.609Z,100996
2014-08-07T02:57:21.892Z,100996
2014-08-07T02:57:40.189Z,101001
2014-08-07T02:57:58.470Z,100998
2014-08-07T02:58:16.751Z,100987
2014-08-07T02:58:35.050Z,101001
2014-08-07T02:58:53.331Z,100985
2014-08-07T02:59:11.613Z,101001
2014-08-07T02:59:29.911Z,100993
2014-08-07T02:59:48.193Z,100990
2014-08-07T03:00:06.474Z,100998
2014-08-07T03:00:24.755Z,100982
2014-08-07T03:00:43.054Z,100990
2014-08-07T03:01:01.335Z,100990
2014-08-07T03:01:19.632Z,100990
2014-08-07T03:01:37.915Z,100985
2014-08-07T03:01:56.197Z,100987
2014-08-07T03:02:14.478Z,100987
2014-08-07T03:02:32.775Z,100979
2014-08-07T03:02:51.058Z,100985
2014-08-07T03:03:09.339Z,100996
2014-08-07T03:03:27.636Z,100993
2014-08-07T03:03:45.919Z,100996
2014-08-07T03:04:04.201Z,100993
2014-08-07T03:04:22.498Z,100987
2014-08-07T03:04:40.779Z,100993
2014-08-07T03:04:59.063Z,100990
2014-08-07T03:05:17.344Z,100987
2014-08-07T03:05:35.844Z,100993
2014-08-07T03:05:53.923Z,100990
2014-08-07T03:06:12.220Z,100993
2014-08-07T03:06:30.502Z,100990
2014-08-07T03:06:48.800Z,100987
2014-08-07T03:07:07.082Z,100979
2014-08-07T03:07:25.379Z,100993
2014-08-07T03:07:43.660Z,100987
2014-08-07T03:08:01.959Z,100990
2014-08-07T03:08:20.240Z,100993
2014-08-07T03:08:38.537Z,100996
2014-08-07T03:08:56.821Z,100982
2014-08-07T03:09:15.102Z,100996
2014-08-07T03:09:33.399Z,100996
2014-08-07T03:09:51.696Z,100985
2014-08-07T03:10:09.978Z,100996
2014-08-07T03:10:28.260Z,100990
2014-08-07T03:10:46.556Z,100993
2014-08-07T03:11:04.855Z,100985
2014-08-07T03:11:23.137Z,100993
2014-08-07T03:11:41.418Z,100979
2014-08-07T03:11:59.715Z,100985
2014-08-07T03:12:17.998Z,100985
2014-08-07T03:12:36.295Z,100985
2014-08-07T03:12:54.576Z,100990
2014-08-07T03:13:12.876Z,100987
2014-08-07T03:13:31.157Z,100985
2014-08-07T03:13:49.454Z,100987
2014-08-07T03:14:07.751Z,100985
2014-08-07T03:14:26.033Z,100987
2014-08-07T03:14:44.314Z,100987
2014-08-07T03:15:02.611Z,100985
2014-08-07T03:15:20.910Z,100987
2014-08-07T03:15:39.191Z,100987
2014-08-07T03:15:57.473Z,100979
2014-08-07T03:16:15.770Z,100985
2014-08-07T03:16:34.069Z,100985
2014-08-07T03:16:52.351Z,100990
2014-08-07T03:17:10.648Z,100990
2014-08-07T03:17:28.931Z,100982
2014-08-07T03:17:47.212Z,100987
2014-08-07T03:18:05.509Z,100982
2014-08-07T03:18:23.790Z,100982
2014-08-07T03:18:42.088Z,100987
2014-08-07T03:19:00.369Z,100982
2014-08-07T03:19:18.651Z,100979
2014-08-07T03:19:36.949Z,100990
2014-08-07T03:19:55.231Z,100979
2014-08-07T03:20:13.543Z,100976
2014-08-07T03:20:31.840Z,100982
2014-08-07T03:20:50.123Z,100993
2014-08-07T03:21:08.405Z,100985
2014-08-07T03:21:26.701Z,100982
2014-08-07T03:21:45.000Z,100985
2014-08-07T03:22:03.282Z,100987
2014-08-07T03:22:21.578Z,100987
2014-08-07T03:22:39.860Z,100990
2014-08-07T03:22:58.160Z,100987
2014-08-07T03:23:16.441Z,100985
2014-08-07T03:23:34.738Z,100990
2014-08-07T03:23:53.021Z,100982
2014-08-07T03:24:11.318Z,100979
2014-08-07T03:24:29.599Z,100982
2014-08-07T03:24:47.896Z,100976
2014-08-07T03:25:06.178Z,100987
2014-08-07T03:25:24.475Z,100990
2014-08-07T03:25:42.772Z,100982
2014-08-07T03:26:01.055Z,100985
2014-08-07T03:26:19.352Z,100985
2014-08-07T03:26:37.649Z,100982
2014-08-07T03:26:55.930Z,100987
2014-08-07T03:27:14.230Z,100990
2014-08-07T03:27:32.527Z,100985
2014-08-07T03:27:50.808Z,100979
2014-08-07T03:28:09.107Z,100987
2014-08-07T03:28:27.388Z,100985
2014-08-07T03:28:45.685Z,100993
2014-08-07T03:29:03.966Z,100985
2014-08-07T03:29:22.265Z,100985
2014-08-07T03:29:40.547Z,100976
2014-08-07T03:29:58.843Z,100987
2014-08-07T03:30:17.142Z,100985
2014-08-07T03:30:35.424Z,100987
2014-08-07T03:30:53.720Z,100993
2014-08-07T03:31:12.002Z,100993
2014-08-07T03:31:30.301Z,100985
2014-08-07T03:31:48.597Z,100987
2014-08-07T03:32:06.879Z,100979
2014-08-07T03:32:25.178Z,100990
2014-08-07T03:32:43.474Z,100993
2014-08-07T03:33:01.756Z,100982
2014-08-07T03:33:20.053Z,100987
2014-08-07T03:33:38.336Z,100979
2014-08-07T03:33:56.633Z,100979
2014-08-07T03:34:14.914Z,100985
2014-08-07T03:34:33.213Z,100987
2014-08-07T03:34:51.510Z,100993
2014-08-07T03:35:09.791Z,100982
2014-08-07T03:35:28.088Z,100985
2014-08-07T03:35:46.372Z,100982
2014-08-07T03:36:04.669Z,100993
2014-08-07T03:36:22.966Z,100990
2014-08-07T03:36:41.249Z,100976
2014-08-07T03:36:59.546Z,100982
2014-08-07T03:37:17.827Z,100985
2014-08-07T03:37:36.124Z,100985
2014-08-07T03:37:54.423Z,100979
2014-08-07T03:38:12.704Z,100979
2014-08-07T03:38:31.001Z,100985
2014-08-07T03:38:49.284Z,100993
2014-08-07T03:39:07.581Z,100987
2014-08-07T03:39:25.878Z,100985
2014-08-07T03:39:44.175Z,100990
2014-08-07T03:40:02.457Z,100982
2014-08-07T03:40:20.754Z,100979
2014-08-07T03:40:39.051Z,100985
2014-08-07T03:40:57.335Z,100987
2014-08-07T03:41:15.632Z,100987
2014-08-07T03:41:33.913Z,100993
2014-08-07T03:41:52.210Z,100982
2014-08-07T03:42:10.508Z,100987
2014-08-07T03:42:28.789Z,100976
2014-08-07T03:42:47.086Z,100985
2014-08-07T03:43:05.386Z,100982
2014-08-07T03:43:23.667Z,100985
2014-08-07T03:43:41.964Z,100990
2014-08-07T03:44:00.245Z,100985
2014-08-07T03:44:18.543Z,100985
2014-08-07T03:44:36.840Z,100985
2014-08-07T03:44:55.121Z,100987
2014-08-07T03:45:13.420Z,100990
2014-08-07T03:45:31.702Z,100995
2014-08-07T03:45:49.998Z,100987
2014-08-07T03:46:08.280Z,100987
2014-08-07T03:46:26.580Z,100987
2014-08-07T03:46:44.876Z,100982
2014-08-07T03:47:03.158Z,100993
2014-08-07T03:47:21.457Z,100995
2014-08-07T03:47:39.738Z,100995
2014-08-07T03:47:58.035Z,100990
2014-08-07T03:48:16.332Z,100987